createdAt,value
2023-03-23T15:59:45.045Z,20.70
2023-03-23T16:02:20.049Z,20.79
2023-03-23T16:04:48.144Z,20.95
2023-03-23T16:07:15.532Z,20.96
2023-03-23T16:09:42.747Z,20.93
2023-03-23T16:12:13.699Z,20.84
2023-03-23T16:14:41.754Z,20.73
2023-03-23T16:17:14.121Z,20.64
2023-03-23T16:19:41.420Z,20.49
2023-03-23T16:22:09.998Z,20.42
2023-03-23T16:24:38.837Z,20.36
2023-03-23T16:27:06.636Z,20.33
2023-03-23T16:29:59.829Z,20.28
2023-03-23T16:32:21.113Z,20.23
2023-03-23T16:34:52.587Z,20.21
2023-03-23T16:37:26.334Z,20.19
2023-03-23T16:39:53.664Z,20.23
2023-03-23T16:42:45.273Z,20.12
2023-03-23T16:45:13.873Z,20.10
2023-03-23T16:47:52.136Z,20.09
2023-03-23T16:50:43.024Z,19.94
2023-03-23T16:53:14.770Z,19.98
2023-03-23T16:55:44.363Z,20.04
2023-03-23T16:58:16.970Z,19.91
2023-03-23T17:00:50.312Z,19.76
2023-03-23T17:03:24.357Z,19.69
2023-03-23T17:05:54.064Z,19.53
2023-03-23T17:08:23.293Z,19.56
2023-03-23T17:10:51.469Z,19.50
2023-03-23T17:13:31.299Z,19.45
2023-03-23T17:16:00.603Z,19.34
2023-03-23T17:18:30.794Z,19.30
2023-03-23T17:21:06.938Z,19.24
2023-03-23T17:23:49.483Z,19.14
2023-03-23T17:26:19.686Z,19.07
2023-03-23T17:28:49.060Z,18.99
2023-03-23T17:31:22.831Z,18.87
2023-03-23T17:34:04.088Z,18.85
2023-03-23T17:36:33.200Z,18.81
2023-03-23T17:39:08.444Z,18.75
2023-03-23T17:41:38.128Z,18.67
2023-03-23T17:44:11.651Z,18.64
2023-03-23T17:46:41.320Z,18.61
2023-03-23T17:49:09.433Z,18.52
2023-03-23T17:51:37.632Z,18.50
2023-03-23T17:54:10.189Z,18.38
2023-03-23T17:56:42.227Z,18.38
2023-03-23T17:59:15.880Z,18.33
2023-03-23T18:01:48.104Z,18.29
2023-03-23T18:04:27.342Z,18.10
2023-03-23T18:06:56.690Z,18.16
2023-03-23T18:09:27.772Z,18.14
2023-03-23T18:11:56.952Z,18.04
2023-03-23T18:14:24.345Z,18.06
2023-03-23T18:16:52.073Z,17.95
2023-03-23T18:19:19.569Z,17.85
2023-03-23T18:21:46.902Z,17.71
2023-03-23T18:24:15.146Z,17.56
2023-03-23T18:26:44.112Z,17.47
2023-03-23T18:29:36.883Z,17.41
2023-03-23T18:32:07.872Z,17.38
2023-03-23T18:34:36.704Z,17.28
2023-03-23T18:37:04.707Z,17.23
2023-03-23T18:39:34.550Z,17.20
2023-03-23T18:42:02.054Z,17.16
2023-03-23T18:44:30.607Z,17.08
2023-03-23T18:47:38.987Z,17.04
2023-03-23T18:50:10.760Z,16.94
2023-03-23T18:52:38.464Z,16.83
2023-03-23T18:55:09.808Z,16.87
2023-03-23T18:57:41.773Z,16.83
2023-03-23T19:00:15.243Z,16.81
2023-03-23T19:03:04.507Z,16.66
2023-03-23T19:05:58.409Z,16.81
2023-03-23T19:11:18.569Z,16.69
2023-03-23T19:14:02.324Z,16.63
2023-03-23T19:16:40.051Z,16.56
2023-03-23T19:19:11.850Z,16.49
2023-03-23T19:21:48.701Z,16.47
2023-03-23T19:24:27.345Z,16.28
2023-03-23T19:27:03.086Z,16.37
2023-03-23T19:32:30.183Z,16.12
2023-03-23T19:35:03.916Z,16.18
2023-03-23T19:37:34.728Z,16.17
2023-03-23T19:40:22.705Z,16.21
2023-03-23T19:42:58.848Z,16.00
2023-03-23T19:45:27.850Z,16.05
2023-03-23T19:47:55.665Z,16.11
2023-03-23T19:50:23.251Z,16.07
2023-03-23T19:52:51.223Z,16.01
2023-03-23T19:55:19.484Z,15.91
2023-03-23T19:57:49.920Z,16.01
2023-03-23T20:00:17.502Z,15.99
2023-03-23T20:02:45.629Z,16.13
2023-03-23T20:05:12.888Z,16.02
2023-03-23T20:07:42.826Z,15.90
2023-03-23T20:10:17.100Z,15.98
2023-03-23T20:12:44.534Z,15.84
2023-03-23T20:15:12.312Z,15.96
2023-03-23T20:17:40.091Z,15.95
2023-03-23T20:20:10.263Z,15.82
2023-03-23T20:22:38.404Z,15.88
2023-03-23T20:25:08.202Z,15.84
2023-03-23T20:27:37.900Z,15.82
2023-03-23T20:30:07.720Z,15.91
2023-03-23T20:32:37.999Z,15.90
2023-03-23T20:35:09.858Z,15.84
2023-03-23T20:37:41.515Z,15.83
2023-03-23T20:40:13.477Z,15.82
2023-03-23T20:42:44.717Z,15.85
2023-03-23T20:45:20.691Z,15.80
2023-03-23T20:47:49.965Z,15.75
2023-03-23T20:50:35.929Z,15.71
2023-03-23T20:53:09.761Z,15.87
2023-03-23T20:55:37.987Z,15.88
2023-03-23T20:58:05.188Z,15.76
2023-03-23T21:00:32.572Z,15.92
2023-03-23T21:03:03.539Z,16.10
2023-03-23T21:05:31.836Z,16.03
2023-03-23T21:08:00.111Z,15.82
2023-03-23T21:10:29.154Z,15.96
2023-03-23T21:12:58.270Z,16.01
2023-03-23T21:15:26.521Z,16.03
2023-03-23T21:17:53.796Z,15.84
2023-03-23T21:20:21.185Z,15.71
2023-03-23T21:22:48.427Z,15.78
2023-03-23T21:25:15.988Z,15.91
2023-03-23T21:27:43.274Z,15.79
2023-03-23T21:30:10.725Z,15.90
2023-03-23T21:32:38.913Z,15.95
2023-03-23T21:35:09.078Z,15.85
2023-03-23T21:37:36.405Z,15.80
2023-03-23T21:40:05.338Z,15.70
2023-03-23T21:42:32.944Z,15.61
2023-03-23T21:45:03.746Z,15.56
2023-03-23T21:47:31.511Z,15.53
2023-03-23T21:49:59.450Z,15.56
2023-03-23T21:52:27.067Z,15.47
2023-03-23T21:54:54.535Z,15.51
2023-03-23T21:57:23.120Z,15.37
2023-03-23T21:59:50.417Z,15.35
2023-03-23T22:02:17.659Z,15.22
2023-03-23T22:04:44.988Z,15.08
2023-03-23T22:07:12.932Z,15.05
2023-03-23T22:09:45.416Z,14.92
2023-03-23T22:12:13.760Z,14.80
2023-03-23T22:14:41.085Z,14.75
2023-03-23T22:17:09.238Z,14.73
2023-03-23T22:19:36.840Z,14.74
2023-03-23T22:22:07.072Z,14.63
2023-03-23T22:24:34.372Z,14.56
2023-03-23T22:27:01.823Z,14.41
2023-03-23T22:29:29.056Z,14.40
2023-03-23T22:31:56.437Z,14.22
2023-03-23T22:34:23.868Z,14.26
2023-03-23T22:36:51.743Z,14.32
2023-03-23T22:39:19.147Z,14.15
2023-03-23T22:41:46.427Z,14.16
2023-03-23T22:44:18.500Z,14.13
2023-03-23T22:46:46.274Z,14.13
2023-03-23T22:49:14.094Z,14.11
2023-03-23T22:51:41.616Z,14.05
2023-03-23T22:54:10.220Z,14.02
2023-03-23T22:56:38.256Z,13.93
2023-03-23T22:59:06.946Z,13.88
2023-03-23T23:01:36.362Z,13.99
2023-03-23T23:04:04.597Z,13.94
2023-03-23T23:06:31.897Z,13.87
2023-03-23T23:08:59.487Z,13.77
2023-03-23T23:11:28.294Z,13.79
2023-03-23T23:13:58.220Z,13.76
2023-03-23T23:16:27.936Z,13.69
2023-03-23T23:18:56.353Z,13.68
2023-03-23T23:21:27.068Z,13.65
2023-03-23T23:23:54.719Z,13.56
2023-03-23T23:26:22.248Z,13.60
2023-03-23T23:28:50.715Z,13.54
2023-03-23T23:31:27.638Z,13.51
2023-03-23T23:33:57.140Z,13.56
2023-03-23T23:36:30.444Z,13.49
2023-03-23T23:39:02.468Z,13.43
2023-03-23T23:41:30.994Z,13.42
2023-03-23T23:43:58.995Z,13.35
2023-03-23T23:46:27.077Z,13.29
2023-03-23T23:48:54.442Z,13.30
2023-03-23T23:51:21.877Z,13.24
2023-03-23T23:53:53.649Z,13.18
2023-03-23T23:56:21.845Z,13.18
2023-03-23T23:58:49.623Z,12.93
